sensor_id;sensor_type;location;lat;lon;timestamp;temperature;humidity
55711;DHT22;41612;51.994;5.880;2022-10-23T00:00:57;13.90;83.00
55711;DHT22;41612;51.994;5.880;2022-10-23T00:03:23;13.90;83.10
55711;DHT22;41612;51.994;5.880;2022-10-23T00:05:48;13.90;83.10
55711;DHT22;41612;51.994;5.880;2022-10-23T00:08:14;13.90;83.10
55711;DHT22;41612;51.994;5.880;2022-10-23T00:10:41;13.80;83.00
55711;DHT22;41612;51.994;5.880;2022-10-23T00:13:08;13.80;83.10
55711;DHT22;41612;51.994;5.880;2022-10-23T00:15:34;13.80;83.00
55711;DHT22;41612;51.994;5.880;2022-10-23T00:18:03;13.80;83.00
55711;DHT22;41612;51.994;5.880;2022-10-23T00:20:29;13.80;83.10
55711;DHT22;41612;51.994;5.880;2022-10-23T00:22:55;13.80;83.10
55711;DHT22;41612;51.994;5.880;2022-10-23T00:25:20;13.80;83.10
55711;DHT22;41612;51.994;5.880;2022-10-23T00:27:46;13.70;83.10
55711;DHT22;41612;51.994;5.880;2022-10-23T00:30:12;13.70;83.10
55711;DHT22;41612;51.994;5.880;2022-10-23T00:32:38;13.70;83.30
55711;DHT22;41612;51.994;5.880;2022-10-23T00:35:04;13.70;83.30
55711;DHT22;41612;51.994;5.880;2022-10-23T00:37:30;13.70;83.40
55711;DHT22;41612;51.994;5.880;2022-10-23T00:39:56;13.70;83.50
55711;DHT22;41612;51.994;5.880;2022-10-23T00:42:23;13.70;83.50
55711;DHT22;41612;51.994;5.880;2022-10-23T00:47:14;13.70;83.90
55711;DHT22;41612;51.994;5.880;2022-10-23T00:49:40;13.70;83.80
55711;DHT22;41612;51.994;5.880;2022-10-23T00:52:08;13.70;83.70
55711;DHT22;41612;51.994;5.880;2022-10-23T00:54:40;13.70;83.70
55711;DHT22;41612;51.994;5.880;2022-10-23T00:57:12;13.70;83.70
55711;DHT22;41612;51.994;5.880;2022-10-23T00:59:38;13.70;83.70
55711;DHT22;41612;51.994;5.880;2022-10-23T01:02:05;13.70;83.10
55711;DHT22;41612;51.994;5.880;2022-10-23T01:04:31;13.70;83.00
55711;DHT22;41612;51.994;5.880;2022-10-23T01:07:17;13.70;83.20
55711;DHT22;41612;51.994;5.880;2022-10-23T01:28:26;13.60;83.70
55711;DHT22;41612;51.994;5.880;2022-10-23T01:30:53;13.60;83.50
55711;DHT22;41612;51.994;5.880;2022-10-23T01:33:26;13.60;83.80
55711;DHT22;41612;51.994;5.880;2022-10-23T01:36:05;13.60;83.50
55711;DHT22;41612;51.994;5.880;2022-10-23T01:41:23;13.60;83.40
55711;DHT22;41612;51.994;5.880;2022-10-23T01:43:56;13.60;83.40
55711;DHT22;41612;51.994;5.880;2022-10-23T01:46:29;13.60;83.50
55711;DHT22;41612;51.994;5.880;2022-10-23T01:48:58;13.60;83.50
55711;DHT22;41612;51.994;5.880;2022-10-23T01:51:26;13.60;83.50
55711;DHT22;41612;51.994;5.880;2022-10-23T01:53:57;13.60;83.60
55711;DHT22;41612;51.994;5.880;2022-10-23T01:56:35;13.60;83.60
55711;DHT22;41612;51.994;5.880;2022-10-23T01:59:05;13.60;83.50
55711;DHT22;41612;51.994;5.880;2022-10-23T02:01:40;13.50;83.50
55711;DHT22;41612;51.994;5.880;2022-10-23T02:04:08;13.60;83.50
55711;DHT22;41612;51.994;5.880;2022-10-23T02:06:34;13.50;83.50
55711;DHT22;41612;51.994;5.880;2022-10-23T02:09:00;13.50;83.50
55711;DHT22;41612;51.994;5.880;2022-10-23T02:11:26;13.50;83.50
55711;DHT22;41612;51.994;5.880;2022-10-23T02:14:07;13.50;83.50
55711;DHT22;41612;51.994;5.880;2022-10-23T02:22:00;13.40;83.70
55711;DHT22;41612;51.994;5.880;2022-10-23T02:27:31;13.40;83.80
55711;DHT22;41612;51.994;5.880;2022-10-23T02:30:07;13.30;83.70
55711;DHT22;41612;51.994;5.880;2022-10-23T02:32:36;13.30;83.60
55711;DHT22;41612;51.994;5.880;2022-10-23T02:35:03;13.30;83.70
55711;DHT22;41612;51.994;5.880;2022-10-23T02:37:29;13.30;83.90
55711;DHT22;41612;51.994;5.880;2022-10-23T02:39:55;13.30;83.80
55711;DHT22;41612;51.994;5.880;2022-10-23T02:44:55;13.20;84.20
55711;DHT22;41612;51.994;5.880;2022-10-23T02:53:20;13.10;84.40
55711;DHT22;41612;51.994;5.880;2022-10-23T02:56:01;13.10;84.50
55711;DHT22;41612;51.994;5.880;2022-10-23T02:58:55;13.10;84.20
55711;DHT22;41612;51.994;5.880;2022-10-23T03:04:25;13.10;84.50
55711;DHT22;41612;51.994;5.880;2022-10-23T03:06:52;13.10;84.60
55711;DHT22;41612;51.994;5.880;2022-10-23T03:09:19;13.10;84.70
55711;DHT22;41612;51.994;5.880;2022-10-23T03:11:44;13.10;84.70
55711;DHT22;41612;51.994;5.880;2022-10-23T03:14:12;13.10;84.70
55711;DHT22;41612;51.994;5.880;2022-10-23T03:16:38;13.10;84.70
55711;DHT22;41612;51.994;5.880;2022-10-23T03:19:04;13.10;84.60
55711;DHT22;41612;51.994;5.880;2022-10-23T03:21:29;13.10;84.80
55711;DHT22;41612;51.994;5.880;2022-10-23T03:23:55;13.20;84.90
55711;DHT22;41612;51.994;5.880;2022-10-23T03:26:28;13.10;84.80
55711;DHT22;41612;51.994;5.880;2022-10-23T03:28:54;13.10;84.70
55711;DHT22;41612;51.994;5.880;2022-10-23T03:31:22;13.10;84.80
55711;DHT22;41612;51.994;5.880;2022-10-23T03:33:53;13.10;84.80
55711;DHT22;41612;51.994;5.880;2022-10-23T03:36:20;13.20;85.10
55711;DHT22;41612;51.994;5.880;2022-10-23T03:38:46;13.20;84.80
55711;DHT22;41612;51.994;5.880;2022-10-23T03:41:11;13.20;85.00
55711;DHT22;41612;51.994;5.880;2022-10-23T03:43:37;13.20;85.10
55711;DHT22;41612;51.994;5.880;2022-10-23T03:46:05;13.20;85.10
55711;DHT22;41612;51.994;5.880;2022-10-23T03:48:34;13.20;84.80
55711;DHT22;41612;51.994;5.880;2022-10-23T03:51:05;13.20;84.80
55711;DHT22;41612;51.994;5.880;2022-10-23T03:53:31;13.20;84.90
55711;DHT22;41612;51.994;5.880;2022-10-23T03:56:00;13.20;84.80
55711;DHT22;41612;51.994;5.880;2022-10-23T03:58:26;13.20;84.80
55711;DHT22;41612;51.994;5.880;2022-10-23T04:00:52;13.20;84.60
55711;DHT22;41612;51.994;5.880;2022-10-23T04:03:17;13.20;84.70
55711;DHT22;41612;51.994;5.880;2022-10-23T04:05:43;13.30;84.70
55711;DHT22;41612;51.994;5.880;2022-10-23T04:08:09;13.30;84.80
55711;DHT22;41612;51.994;5.880;2022-10-23T04:10:35;13.30;84.80
55711;DHT22;41612;51.994;5.880;2022-10-23T04:13:01;13.30;84.80
55711;DHT22;41612;51.994;5.880;2022-10-23T04:15:29;13.30;84.80
55711;DHT22;41612;51.994;5.880;2022-10-23T04:17:55;13.30;84.50
55711;DHT22;41612;51.994;5.880;2022-10-23T04:20:21;13.30;84.10
55711;DHT22;41612;51.994;5.880;2022-10-23T04:22:46;13.30;84.20
55711;DHT22;41612;51.994;5.880;2022-10-23T04:25:12;13.30;83.00
55711;DHT22;41612;51.994;5.880;2022-10-23T04:27:38;13.30;83.00
55711;DHT22;41612;51.994;5.880;2022-10-23T04:30:04;13.20;83.20
55711;DHT22;41612;51.994;5.880;2022-10-23T04:32:30;13.30;83.50
55711;DHT22;41612;51.994;5.880;2022-10-23T04:34:56;13.30;83.60
55711;DHT22;41612;51.994;5.880;2022-10-23T04:37:22;13.30;83.40
55711;DHT22;41612;51.994;5.880;2022-10-23T04:39:48;13.30;83.80
55711;DHT22;41612;51.994;5.880;2022-10-23T04:42:13;13.30;83.90
55711;DHT22;41612;51.994;5.880;2022-10-23T04:44:39;13.30;84.30
55711;DHT22;41612;51.994;5.880;2022-10-23T04:47:05;13.30;83.90
55711;DHT22;41612;51.994;5.880;2022-10-23T04:49:34;13.30;83.90
55711;DHT22;41612;51.994;5.880;2022-10-23T04:52:29;13.20;83.90
55711;DHT22;41612;51.994;5.880;2022-10-23T04:55:24;13.30;84.30
55711;DHT22;41612;51.994;5.880;2022-10-23T04:58:04;13.30;84.40
55711;DHT22;41612;51.994;5.880;2022-10-23T05:00:31;13.30;84.50
55711;DHT22;41612;51.994;5.880;2022-10-23T05:02:56;13.30;84.40
55711;DHT22;41612;51.994;5.880;2022-10-23T05:05:22;13.30;84.60
55711;DHT22;41612;51.994;5.880;2022-10-23T05:08:05;13.30;84.50
55711;DHT22;41612;51.994;5.880;2022-10-23T05:11:04;13.30;84.60
55711;DHT22;41612;51.994;5.880;2022-10-23T05:13:34;13.30;84.80
55711;DHT22;41612;51.994;5.880;2022-10-23T05:16:00;13.30;85.10
55711;DHT22;41612;51.994;5.880;2022-10-23T05:21:21;13.40;84.10
55711;DHT22;41612;51.994;5.880;2022-10-23T05:23:50;13.30;84.10
55711;DHT22;41612;51.994;5.880;2022-10-23T05:26:16;13.30;84.50
55711;DHT22;41612;51.994;5.880;2022-10-23T05:28:45;13.30;84.00
55711;DHT22;41612;51.994;5.880;2022-10-23T05:31:16;13.40;84.10
55711;DHT22;41612;51.994;5.880;2022-10-23T05:33:47;13.40;83.80
55711;DHT22;41612;51.994;5.880;2022-10-23T05:36:14;13.40;83.00
55711;DHT22;41612;51.994;5.880;2022-10-23T05:38:41;13.40;83.60
55711;DHT22;41612;51.994;5.880;2022-10-23T05:41:15;13.50;83.90
55711;DHT22;41612;51.994;5.880;2022-10-23T05:43:41;13.50;84.10
55711;DHT22;41612;51.994;5.880;2022-10-23T05:46:21;13.60;84.10
55711;DHT22;41612;51.994;5.880;2022-10-23T05:49:07;13.70;83.90
55711;DHT22;41612;51.994;5.880;2022-10-23T05:51:53;13.70;84.10
55711;DHT22;41612;51.994;5.880;2022-10-23T05:54:33;13.70;84.40
55711;DHT22;41612;51.994;5.880;2022-10-23T05:57:21;13.70;83.60
55711;DHT22;41612;51.994;5.880;2022-10-23T05:59:49;13.80;83.80
55711;DHT22;41612;51.994;5.880;2022-10-23T06:02:37;13.80;84.00
55711;DHT22;41612;51.994;5.880;2022-10-23T06:05:11;13.80;83.40
55711;DHT22;41612;51.994;5.880;2022-10-23T06:07:50;13.80;83.70
55711;DHT22;41612;51.994;5.880;2022-10-23T06:10:17;13.80;83.70
55711;DHT22;41612;51.994;5.880;2022-10-23T06:12:45;13.80;83.80
55711;DHT22;41612;51.994;5.880;2022-10-23T06:15:14;13.90;83.50
55711;DHT22;41612;51.994;5.880;2022-10-23T06:18:01;13.80;84.10
55711;DHT22;41612;51.994;5.880;2022-10-23T06:20:29;13.80;83.70
55711;DHT22;41612;51.994;5.880;2022-10-23T06:23:07;13.90;84.20
55711;DHT22;41612;51.994;5.880;2022-10-23T06:25:54;13.90;83.60
55711;DHT22;41612;51.994;5.880;2022-10-23T06:28:29;13.90;84.10
55711;DHT22;41612;51.994;5.880;2022-10-23T06:30:55;13.90;84.10
55711;DHT22;41612;51.994;5.880;2022-10-23T06:33:21;13.90;83.80
55711;DHT22;41612;51.994;5.880;2022-10-23T06:35:47;13.90;83.90
55711;DHT22;41612;51.994;5.880;2022-10-23T06:38:13;13.90;83.60
55711;DHT22;41612;51.994;5.880;2022-10-23T06:40:52;13.90;82.10
55711;DHT22;41612;51.994;5.880;2022-10-23T06:43:24;13.90;82.80
55711;DHT22;41612;51.994;5.880;2022-10-23T06:46:12;14.00;82.10
55711;DHT22;41612;51.994;5.880;2022-10-23T06:49:04;14.00;82.10
55711;DHT22;41612;51.994;5.880;2022-10-23T06:51:35;14.00;83.10
55711;DHT22;41612;51.994;5.880;2022-10-23T06:54:02;14.00;83.00
55711;DHT22;41612;51.994;5.880;2022-10-23T06:56:46;14.00;83.70
55711;DHT22;41612;51.994;5.880;2022-10-23T06:59:16;14.10;83.70
55711;DHT22;41612;51.994;5.880;2022-10-23T07:01:44;14.10;81.20
55711;DHT22;41612;51.994;5.880;2022-10-23T07:04:10;14.10;83.00
55711;DHT22;41612;51.994;5.880;2022-10-23T07:06:39;14.10;81.30
55711;DHT22;41612;51.994;5.880;2022-10-23T07:09:06;14.10;81.00
55711;DHT22;41612;51.994;5.880;2022-10-23T07:11:50;14.10;81.40
55711;DHT22;41612;51.994;5.880;2022-10-23T07:14:17;14.10;80.00
55711;DHT22;41612;51.994;5.880;2022-10-23T07:16:43;14.10;81.60
55711;DHT22;41612;51.994;5.880;2022-10-23T07:19:09;14.20;81.70
55711;DHT22;41612;51.994;5.880;2022-10-23T07:21:37;14.20;82.30
55711;DHT22;41612;51.994;5.880;2022-10-23T07:24:38;14.20;82.60
55711;DHT22;41612;51.994;5.880;2022-10-23T07:27:15;14.20;83.10
55711;DHT22;41612;51.994;5.880;2022-10-23T07:29:42;14.20;82.90
55711;DHT22;41612;51.994;5.880;2022-10-23T07:32:07;14.20;81.90
55711;DHT22;41612;51.994;5.880;2022-10-23T07:34:33;14.30;82.60
55711;DHT22;41612;51.994;5.880;2022-10-23T07:37:21;14.30;82.60
55711;DHT22;41612;51.994;5.880;2022-10-23T07:39:47;14.30;82.40
55711;DHT22;41612;51.994;5.880;2022-10-23T07:42:13;14.30;82.30
55711;DHT22;41612;51.994;5.880;2022-10-23T07:44:40;14.30;81.80
55711;DHT22;41612;51.994;5.880;2022-10-23T07:47:06;14.30;81.90
55711;DHT22;41612;51.994;5.880;2022-10-23T07:49:32;14.40;81.40
55711;DHT22;41612;51.994;5.880;2022-10-23T07:51:58;14.50;82.10
55711;DHT22;41612;51.994;5.880;2022-10-23T07:54:29;14.50;82.60
55711;DHT22;41612;51.994;5.880;2022-10-23T07:57:13;14.50;82.50
55711;DHT22;41612;51.994;5.880;2022-10-23T07:59:44;14.60;82.50
55711;DHT22;41612;51.994;5.880;2022-10-23T08:02:15;14.60;82.40
55711;DHT22;41612;51.994;5.880;2022-10-23T08:04:42;14.70;82.00
55711;DHT22;41612;51.994;5.880;2022-10-23T08:07:22;14.70;81.70
55711;DHT22;41612;51.994;5.880;2022-10-23T08:09:50;14.70;81.00
55711;DHT22;41612;51.994;5.880;2022-10-23T08:12:16;14.70;81.00
55711;DHT22;41612;51.994;5.880;2022-10-23T08:14:42;14.70;81.30
55711;DHT22;41612;51.994;5.880;2022-10-23T08:17:08;14.70;82.20
55711;DHT22;41612;51.994;5.880;2022-10-23T08:19:52;14.70;81.80
55711;DHT22;41612;51.994;5.880;2022-10-23T08:22:19;14.70;82.20
55711;DHT22;41612;51.994;5.880;2022-10-23T08:24:46;14.80;82.40
55711;DHT22;41612;51.994;5.880;2022-10-23T08:27:12;14.80;81.60
55711;DHT22;41612;51.994;5.880;2022-10-23T08:29:43;14.80;82.00
55711;DHT22;41612;51.994;5.880;2022-10-23T08:32:09;14.90;82.20
55711;DHT22;41612;51.994;5.880;2022-10-23T08:34:46;14.90;81.50
55711;DHT22;41612;51.994;5.880;2022-10-23T08:37:12;15.00;81.80
55711;DHT22;41612;51.994;5.880;2022-10-23T08:39:38;15.00;81.10
55711;DHT22;41612;51.994;5.880;2022-10-23T08:42:20;15.10;79.80
55711;DHT22;41612;51.994;5.880;2022-10-23T08:45:07;15.20;79.70
55711;DHT22;41612;51.994;5.880;2022-10-23T08:56:19;15.30;80.30
55711;DHT22;41612;51.994;5.880;2022-10-23T08:58:55;15.40;80.40
55711;DHT22;41612;51.994;5.880;2022-10-23T09:01:31;15.40;80.70
55711;DHT22;41612;51.994;5.880;2022-10-23T09:03:59;15.50;80.60
55711;DHT22;41612;51.994;5.880;2022-10-23T09:09:23;15.60;80.50
55711;DHT22;41612;51.994;5.880;2022-10-23T09:12:04;15.70;80.10
55711;DHT22;41612;51.994;5.880;2022-10-23T09:17:35;15.70;79.00
55711;DHT22;41612;51.994;5.880;2022-10-23T09:20:25;15.80;80.10
55711;DHT22;41612;51.994;5.880;2022-10-23T09:22:58;15.70;79.40
55711;DHT22;41612;51.994;5.880;2022-10-23T09:25:27;15.80;79.90
55711;DHT22;41612;51.994;5.880;2022-10-23T09:27:57;15.70;79.60
55711;DHT22;41612;51.994;5.880;2022-10-23T09:30:40;15.70;79.20
55711;DHT22;41612;51.994;5.880;2022-10-23T09:33:20;15.70;80.10
55711;DHT22;41612;51.994;5.880;2022-10-23T09:38:30;15.70;80.50
55711;DHT22;41612;51.994;5.880;2022-10-23T09:49:24;15.80;81.10
55711;DHT22;41612;51.994;5.880;2022-10-23T09:52:18;15.80;81.00
55711;DHT22;41612;51.994;5.880;2022-10-23T09:55:01;15.90;80.90
55711;DHT22;41612;51.994;5.880;2022-10-23T09:57:43;16.00;80.70
55711;DHT22;41612;51.994;5.880;2022-10-23T10:00:21;16.00;80.80
55711;DHT22;41612;51.994;5.880;2022-10-23T10:03:04;16.00;81.10
55711;DHT22;41612;51.994;5.880;2022-10-23T10:05:38;16.10;81.10
55711;DHT22;41612;51.994;5.880;2022-10-23T10:10:51;16.20;81.10
55711;DHT22;41612;51.994;5.880;2022-10-23T10:16:47;16.30;80.20
55711;DHT22;41612;51.994;5.880;2022-10-23T10:22:51;16.50;77.40
55711;DHT22;41612;51.994;5.880;2022-10-23T10:25:02;16.60;79.30
55711;DHT22;41612;51.994;5.880;2022-10-23T10:30:13;16.80;78.00
55711;DHT22;41612;51.994;5.880;2022-10-23T10:32:56;16.80;78.00
55711;DHT22;41612;51.994;5.880;2022-10-23T10:38:20;16.90;78.00
55711;DHT22;41612;51.994;5.880;2022-10-23T10:54:57;16.90;76.80
55711;DHT22;41612;51.994;5.880;2022-10-23T10:57:34;16.90;76.20
55711;DHT22;41612;51.994;5.880;2022-10-23T11:13:53;17.40;74.00
55711;DHT22;41612;51.994;5.880;2022-10-23T11:16:36;17.50;75.20
55711;DHT22;41612;51.994;5.880;2022-10-23T11:19:06;17.40;75.60
55711;DHT22;41612;51.994;5.880;2022-10-23T11:22:01;17.40;75.50
55711;DHT22;41612;51.994;5.880;2022-10-23T11:24:50;17.50;76.10
55711;DHT22;41612;51.994;5.880;2022-10-23T11:35:52;17.80;74.80
55711;DHT22;41612;51.994;5.880;2022-10-23T11:38:35;17.90;73.60
55711;DHT22;41612;51.994;5.880;2022-10-23T11:41:26;18.10;74.00
55711;DHT22;41612;51.994;5.880;2022-10-23T11:43:59;18.20;73.90
55711;DHT22;41612;51.994;5.880;2022-10-23T11:46:37;18.30;73.70
55711;DHT22;41612;51.994;5.880;2022-10-23T11:49:04;18.40;73.20
55711;DHT22;41612;51.994;5.880;2022-10-23T11:51:38;18.40;71.60
55711;DHT22;41612;51.994;5.880;2022-10-23T11:54:06;18.40;72.70
55711;DHT22;41612;51.994;5.880;2022-10-23T11:56:32;18.40;72.20
55711;DHT22;41612;51.994;5.880;2022-10-23T12:01:46;18.50;72.10
55711;DHT22;41612;51.994;5.880;2022-10-23T12:04:16;18.60;72.20
55711;DHT22;41612;51.994;5.880;2022-10-23T12:06:50;18.70;72.00
55711;DHT22;41612;51.994;5.880;2022-10-23T12:09:30;18.80;71.80
55711;DHT22;41612;51.994;5.880;2022-10-23T12:14:38;19.50;70.40
55711;DHT22;41612;51.994;5.880;2022-10-23T12:19:51;20.20;67.70
55711;DHT22;41612;51.994;5.880;2022-10-23T12:22:19;20.40;67.30
55711;DHT22;41612;51.994;5.880;2022-10-23T12:25:03;20.70;66.60
55711;DHT22;41612;51.994;5.880;2022-10-23T12:27:40;21.10;65.80
55711;DHT22;41612;51.994;5.880;2022-10-23T12:30:19;21.40;63.60
55711;DHT22;41612;51.994;5.880;2022-10-23T12:33:14;21.60;62.80
55711;DHT22;41612;51.994;5.880;2022-10-23T12:38:45;21.30;63.50
55711;DHT22;41612;51.994;5.880;2022-10-23T12:41:20;21.00;64.00
55711;DHT22;41612;51.994;5.880;2022-10-23T12:43:55;20.80;65.10
55711;DHT22;41612;51.994;5.880;2022-10-23T12:46:50;20.70;66.50
55711;DHT22;41612;51.994;5.880;2022-10-23T12:49:23;20.60;65.80
55711;DHT22;41612;51.994;5.880;2022-10-23T12:52:20;20.50;66.80
55711;DHT22;41612;51.994;5.880;2022-10-23T12:54:46;20.40;66.70
55711;DHT22;41612;51.994;5.880;2022-10-23T12:57:27;20.30;67.20
55711;DHT22;41612;51.994;5.880;2022-10-23T12:59:57;20.40;67.70
55711;DHT22;41612;51.994;5.880;2022-10-23T13:02:29;20.40;67.60
55711;DHT22;41612;51.994;5.880;2022-10-23T13:04:58;20.50;67.10
55711;DHT22;41612;51.994;5.880;2022-10-23T13:07:27;20.50;67.70
55711;DHT22;41612;51.994;5.880;2022-10-23T13:13:13;20.40;67.20
55711;DHT22;41612;51.994;5.880;2022-10-23T13:15:43;20.30;67.50
55711;DHT22;41612;51.994;5.880;2022-10-23T13:18:14;20.20;67.30
55711;DHT22;41612;51.994;5.880;2022-10-23T13:23:23;20.10;68.50
55711;DHT22;41612;51.994;5.880;2022-10-23T13:26:03;20.00;68.50
55711;DHT22;41612;51.994;5.880;2022-10-23T13:33:47;19.80;69.80
55711;DHT22;41612;51.994;5.880;2022-10-23T13:39:11;19.70;69.90
55711;DHT22;41612;51.994;5.880;2022-10-23T13:41:42;19.70;69.20
55711;DHT22;41612;51.994;5.880;2022-10-23T13:44:16;19.60;69.50
55711;DHT22;41612;51.994;5.880;2022-10-23T13:46:42;19.60;70.20
55711;DHT22;41612;51.994;5.880;2022-10-23T13:49:08;19.70;70.50
55711;DHT22;41612;51.994;5.880;2022-10-23T13:51:43;19.80;70.00
55711;DHT22;41612;51.994;5.880;2022-10-23T13:54:21;19.90;69.90
55711;DHT22;41612;51.994;5.880;2022-10-23T13:56:48;20.00;69.20
55711;DHT22;41612;51.994;5.880;2022-10-23T13:59:21;20.10;68.90
55711;DHT22;41612;51.994;5.880;2022-10-23T14:01:53;20.20;68.80
55711;DHT22;41612;51.994;5.880;2022-10-23T14:04:21;20.30;68.00
55711;DHT22;41612;51.994;5.880;2022-10-23T14:06:50;20.20;68.50
55711;DHT22;41612;51.994;5.880;2022-10-23T14:09:23;20.20;69.30
55711;DHT22;41612;51.994;5.880;2022-10-23T14:11:51;20.10;68.60
55711;DHT22;41612;51.994;5.880;2022-10-23T14:14:19;20.00;68.80
55711;DHT22;41612;51.994;5.880;2022-10-23T14:16:45;20.00;68.30
55711;DHT22;41612;51.994;5.880;2022-10-23T14:19:11;20.00;68.40
55711;DHT22;41612;51.994;5.880;2022-10-23T14:21:37;20.10;68.20
55711;DHT22;41612;51.994;5.880;2022-10-23T14:24:03;20.10;68.90
55711;DHT22;41612;51.994;5.880;2022-10-23T14:26:28;20.10;68.30
55711;DHT22;41612;51.994;5.880;2022-10-23T14:29:00;20.00;68.30
55711;DHT22;41612;51.994;5.880;2022-10-23T14:31:26;20.00;68.20
55711;DHT22;41612;51.994;5.880;2022-10-23T14:34:00;20.00;68.40
55711;DHT22;41612;51.994;5.880;2022-10-23T16:57:03;17.40;77.50
55711;DHT22;41612;51.994;5.880;2022-10-23T16:59:29;17.30;78.00
55711;DHT22;41612;51.994;5.880;2022-10-23T17:01:55;17.30;78.10
55711;DHT22;41612;51.994;5.880;2022-10-23T17:04:21;17.30;78.30
55711;DHT22;41612;51.994;5.880;2022-10-23T17:06:46;17.30;77.90
55711;DHT22;41612;51.994;5.880;2022-10-23T17:09:12;17.40;77.90
55711;DHT22;41612;51.994;5.880;2022-10-23T17:11:39;17.40;77.50
55711;DHT22;41612;51.994;5.880;2022-10-23T17:14:07;17.50;77.60
55711;DHT22;41612;51.994;5.880;2022-10-23T17:16:39;17.50;77.20
55711;DHT22;41612;51.994;5.880;2022-10-23T17:19:06;17.50;77.00
55711;DHT22;41612;51.994;5.880;2022-10-23T17:21:35;17.50;77.00
55711;DHT22;41612;51.994;5.880;2022-10-23T17:24:02;17.50;77.20
55711;DHT22;41612;51.994;5.880;2022-10-23T17:26:28;17.40;77.60
55711;DHT22;41612;51.994;5.880;2022-10-23T17:28:56;17.40;76.80
55711;DHT22;41612;51.994;5.880;2022-10-23T17:31:32;17.40;76.40
55711;DHT22;41612;51.994;5.880;2022-10-23T17:33:59;17.50;77.00
55711;DHT22;41612;51.994;5.880;2022-10-23T17:36:32;17.40;77.60
55711;DHT22;41612;51.994;5.880;2022-10-23T17:38:58;17.40;77.50
55711;DHT22;41612;51.994;5.880;2022-10-23T17:41:26;17.40;77.30
55711;DHT22;41612;51.994;5.880;2022-10-23T17:43:56;17.40;77.80
55711;DHT22;41612;51.994;5.880;2022-10-23T17:46:23;17.40;77.60
55711;DHT22;41612;51.994;5.880;2022-10-23T17:48:49;17.40;77.50
55711;DHT22;41612;51.994;5.880;2022-10-23T19:37:50;17.50;78.40
55711;DHT22;41612;51.994;5.880;2022-10-23T19:40:16;17.60;76.80
55711;DHT22;41612;51.994;5.880;2022-10-23T19:42:45;17.60;76.60
55711;DHT22;41612;51.994;5.880;2022-10-23T19:45:13;17.70;77.50
55711;DHT22;41612;51.994;5.880;2022-10-23T19:47:39;17.60;77.90
55711;DHT22;41612;51.994;5.880;2022-10-23T19:50:06;17.50;76.90
55711;DHT22;41612;51.994;5.880;2022-10-23T19:52:32;17.40;78.70
55711;DHT22;41612;51.994;5.880;2022-10-23T19:54:59;17.30;79.60
55711;DHT22;41612;51.994;5.880;2022-10-23T19:57:25;17.30;79.60
55711;DHT22;41612;51.994;5.880;2022-10-23T19:59:51;17.20;78.80
55711;DHT22;41612;51.994;5.880;2022-10-23T20:02:18;17.10;80.70
55711;DHT22;41612;51.994;5.880;2022-10-23T20:04:44;17.10;79.90
55711;DHT22;41612;51.994;5.880;2022-10-23T20:07:10;17.10;79.90
55711;DHT22;41612;51.994;5.880;2022-10-23T20:09:36;17.10;80.60
55711;DHT22;41612;51.994;5.880;2022-10-23T20:12:04;17.20;79.70
55711;DHT22;41612;51.994;5.880;2022-10-23T20:14:30;17.20;78.40
55711;DHT22;41612;51.994;5.880;2022-10-23T20:16:55;17.20;78.40
55711;DHT22;41612;51.994;5.880;2022-10-23T20:19:21;17.20;77.90
55711;DHT22;41612;51.994;5.880;2022-10-23T20:21:48;17.20;78.50
55711;DHT22;41612;51.994;5.880;2022-10-23T20:24:16;17.30;78.60
55711;DHT22;41612;51.994;5.880;2022-10-23T20:26:46;17.30;77.40
55711;DHT22;41612;51.994;5.880;2022-10-23T20:29:13;17.20;77.20
55711;DHT22;41612;51.994;5.880;2022-10-23T20:31:39;17.20;76.70
55711;DHT22;41612;51.994;5.880;2022-10-23T20:34:06;17.20;76.30
55711;DHT22;41612;51.994;5.880;2022-10-23T20:36:37;17.20;76.40
55711;DHT22;41612;51.994;5.880;2022-10-23T20:39:14;17.30;76.00
55711;DHT22;41612;51.994;5.880;2022-10-23T20:41:40;17.30;75.60
55711;DHT22;41612;51.994;5.880;2022-10-23T20:44:11;17.30;75.20
55711;DHT22;41612;51.994;5.880;2022-10-23T20:46:37;17.30;74.80
55711;DHT22;41612;51.994;5.880;2022-10-23T20:49:03;17.30;74.60
55711;DHT22;41612;51.994;5.880;2022-10-23T20:51:29;17.30;74.30
55711;DHT22;41612;51.994;5.880;2022-10-23T20:53:55;17.30;73.40
55711;DHT22;41612;51.994;5.880;2022-10-23T20:56:26;17.30;73.70
55711;DHT22;41612;51.994;5.880;2022-10-23T20:59:00;17.30;73.30
55711;DHT22;41612;51.994;5.880;2022-10-23T21:01:27;17.40;73.00
55711;DHT22;41612;51.994;5.880;2022-10-23T21:03:54;17.30;73.10
55711;DHT22;41612;51.994;5.880;2022-10-23T21:06:22;17.40;73.20
55711;DHT22;41612;51.994;5.880;2022-10-23T21:08:48;17.40;73.40
55711;DHT22;41612;51.994;5.880;2022-10-23T21:11:15;17.30;73.30
55711;DHT22;41612;51.994;5.880;2022-10-23T21:13:42;17.30;73.20
55711;DHT22;41612;51.994;5.880;2022-10-23T21:16:17;17.30;72.90
55711;DHT22;41612;51.994;5.880;2022-10-23T21:18:43;17.30;72.90
55711;DHT22;41612;51.994;5.880;2022-10-23T21:21:09;17.30;72.50
55711;DHT22;41612;51.994;5.880;2022-10-23T21:23:36;17.30;72.70
55711;DHT22;41612;51.994;5.880;2022-10-23T21:26:03;17.30;72.70
55711;DHT22;41612;51.994;5.880;2022-10-23T21:28:29;17.40;72.80
55711;DHT22;41612;51.994;5.880;2022-10-23T21:31:06;17.40;72.70
55711;DHT22;41612;51.994;5.880;2022-10-23T21:33:33;17.30;72.80
55711;DHT22;41612;51.994;5.880;2022-10-23T21:35:59;17.30;73.00
55711;DHT22;41612;51.994;5.880;2022-10-23T21:38:25;17.30;73.30
55711;DHT22;41612;51.994;5.880;2022-10-23T21:40:51;17.20;73.60
55711;DHT22;41612;51.994;5.880;2022-10-23T21:43:17;17.20;73.90
55711;DHT22;41612;51.994;5.880;2022-10-23T21:45:43;17.20;74.10
55711;DHT22;41612;51.994;5.880;2022-10-23T21:48:08;17.20;74.20
55711;DHT22;41612;51.994;5.880;2022-10-23T21:50:34;17.20;74.40
55711;DHT22;41612;51.994;5.880;2022-10-23T21:53:00;17.20;74.40
55711;DHT22;41612;51.994;5.880;2022-10-23T21:55:27;17.20;74.90
55711;DHT22;41612;51.994;5.880;2022-10-23T21:57:54;17.20;75.10
55711;DHT22;41612;51.994;5.880;2022-10-23T22:00:20;17.20;75.30
55711;DHT22;41612;51.994;5.880;2022-10-23T22:02:46;17.20;75.50
55711;DHT22;41612;51.994;5.880;2022-10-23T22:05:12;17.20;75.70
55711;DHT22;41612;51.994;5.880;2022-10-23T22:07:38;17.20;76.20
55711;DHT22;41612;51.994;5.880;2022-10-23T22:10:04;17.10;77.10
55711;DHT22;41612;51.994;5.880;2022-10-23T22:12:30;16.90;78.20
55711;DHT22;41612;51.994;5.880;2022-10-23T22:14:56;16.80;78.30
55711;DHT22;41612;51.994;5.880;2022-10-23T22:17:21;16.70;79.30
55711;DHT22;41612;51.994;5.880;2022-10-23T22:19:47;16.70;78.80
55711;DHT22;41612;51.994;5.880;2022-10-23T22:22:13;16.70;78.10
55711;DHT22;41612;51.994;5.880;2022-10-23T22:24:38;16.70;78.40
55711;DHT22;41612;51.994;5.880;2022-10-23T22:27:04;16.70;78.90